Time;durP1;ratioP1;P1;durP2;ratioP2;P2;SDS_P1;SDS_P2;PMS_P1;PMS_P2;Temp;Humidity;BMP_temperature;BMP_pressure;BME280_temperature;BME280_humidity;BME280_pressure;Samples;Min_cycle;Max_cycle;Signal;HPM_P1;HPM_P2
2023/08/05 00:00:08;;;;;;;3.87;2.37;;;;;;;14.08;100.00;100924.97;6100271;28;20036;-65
2023/08/05 00:03:03;;;;;;;5.45;2.33;;;;;;;14.05;100.00;100934.13;6099748;28;20048;-65
2023/08/05 00:05:58;;;;;;;3.33;1.87;;;;;;;13.90;100.00;100933.09;6099233;28;20055;-65
2023/08/05 00:08:54;;;;;;;5.57;2.60;;;;;;;13.80;100.00;100935.06;6099856;28;20025;-65
2023/08/05 00:11:49;;;;;;;5.40;2.50;;;;;;;13.84;100.00;100933.72;6099589;28;20112;-65
2023/08/05 00:14:46;;;;;;;4.63;2.10;;;;;;;13.64;100.00;100935.81;6109725;28;20037;-65
2023/08/05 00:17:42;;;;;;;4.88;2.20;;;;;;;13.59;100.00;100934.63;6099574;28;20057;-65
2023/08/05 00:20:37;;;;;;;4.57;2.00;;;;;;;13.43;100.00;100932.72;6099692;28;20112;-65
2023/08/05 00:23:32;;;;;;;8.47;2.30;;;;;;;13.37;100.00;100932.53;6105540;28;20158;-65
2023/08/05 00:26:27;;;;;;;6.43;2.07;;;;;;;13.35;100.00;100929.19;6093241;28;20029;-65
2023/08/05 00:29:23;;;;;;;6.83;2.40;;;;;;;13.31;100.00;100930.50;6099314;28;20475;-65
2023/08/05 00:32:18;;;;;;;4.87;2.57;;;;;;;13.65;100.00;100942.81;6099386;28;20033;-65
2023/08/05 00:35:13;;;;;;;5.63;2.33;;;;;;;13.52;100.00;100936.28;6108465;28;20032;-65
2023/08/05 00:38:09;;;;;;;6.50;2.90;;;;;;;13.47;100.00;100934.09;6097745;28;20052;-65
2023/08/05 00:41:04;;;;;;;8.07;2.40;;;;;;;13.48;100.00;100946.41;6098837;28;20071;-65
2023/08/05 00:43:59;;;;;;;6.30;2.47;;;;;;;13.06;100.00;100925.00;6104703;28;20081;-65
2023/08/05 00:46:55;;;;;;;4.20;2.30;;;;;;;13.15;100.00;100949.06;6111611;28;20283;-65
2023/08/05 00:49:51;;;;;;;6.43;2.90;;;;;;;13.11;100.00;100933.38;6095258;28;20104;-65
2023/08/05 00:52:47;;;;;;;8.07;2.67;;;;;;;13.08;100.00;100941.69;6089417;28;20461;-65
2023/08/05 00:55:42;;;;;;;3.43;2.27;;;;;;;12.96;100.00;100934.91;6098470;28;20047;-65
2023/08/05 00:58:38;;;;;;;8.87;2.93;;;;;;;13.10;100.00;100941.50;6097696;28;20031;-65
2023/08/05 01:01:33;;;;;;;5.78;2.78;;;;;;;13.01;100.00;100921.97;6098333;28;20037;-65
2023/08/05 01:04:29;;;;;;;5.47;2.92;;;;;;;12.93;100.00;100929.91;6100176;28;20372;-65
2023/08/05 01:07:24;;;;;;;6.35;2.90;;;;;;;12.91;100.00;100931.88;6106134;28;20032;-65
2023/08/05 01:10:20;;;;;;;5.25;2.75;;;;;;;12.98;100.00;100937.44;6110498;28;20033;-65
2023/08/05 01:13:15;;;;;;;6.03;3.10;;;;;;;12.86;100.00;100904.91;6098326;28;20434;-65
2023/08/05 01:16:10;;;;;;;8.27;3.47;;;;;;;13.01;100.00;100931.78;6098419;28;20351;-65
2023/08/05 01:19:10;;;;;;;8.13;3.20;;;;;;;13.06;100.00;100930.34;6099620;28;20295;-65
2023/08/05 01:22:27;;;;;;;9.85;3.42;;;;;;;12.79;100.00;100927.81;6103550;28;20152;-65
2023/08/05 01:25:26;;;;;;;5.93;3.25;;;;;;;12.79;100.00;100918.97;6114560;28;20033;-65
2023/08/05 01:28:22;;;;;;;8.05;3.40;;;;;;;12.82;100.00;100937.31;6098209;28;20029;-65
2023/08/05 01:31:17;;;;;;;6.13;3.45;;;;;;;12.79;100.00;100935.78;6113470;28;20491;-65
2023/08/05 01:34:13;;;;;;;5.72;3.42;;;;;;;12.73;100.00;100948.88;6123247;28;20032;-65
2023/08/05 01:37:08;;;;;;;6.63;3.70;;;;;;;12.95;100.00;100941.22;6105112;28;20036;-65
2023/08/05 01:40:05;;;;;;;8.25;3.30;;;;;;;13.34;100.00;100922.19;6093048;28;20056;-65
2023/08/05 01:43:02;;;;;;;6.05;3.40;;;;;;;13.27;100.00;100923.81;6097808;28;20511;-65
2023/08/05 01:45:57;;;;;;;6.65;3.20;;;;;;;13.29;100.00;100924.50;6087130;28;20037;-65
2023/08/05 01:48:52;;;;;;;11.43;3.50;;;;;;;13.39;100.00;100915.41;6097680;28;20102;-65
2023/08/05 01:51:48;;;;;;;5.78;2.90;;;;;;;13.53;100.00;100917.44;6098106;28;20074;-65
2023/08/05 01:54:43;;;;;;;13.00;3.90;;;;;;;13.67;100.00;100921.34;6097370;28;20029;-65
2023/08/05 01:57:38;;;;;;;11.13;3.67;;;;;;;13.90;100.00;100933.09;6097498;28;20032;-65
2023/08/05 02:00:34;;;;;;;10.10;3.33;;;;;;;13.87;100.00;100943.22;6097335;28;20040;-66
2023/08/05 02:03:29;;;;;;;5.93;2.77;;;;;;;13.11;100.00;100937.88;6097116;28;20509;-65
2023/08/05 02:06:24;;;;;;;5.30;2.60;;;;;;;13.17;100.00;100941.72;6099952;28;20279;-65
2023/08/05 02:09:20;;;;;;;7.53;3.57;;;;;;;13.58;100.00;100939.13;6097394;28;20032;-65
2023/08/05 02:12:15;;;;;;;6.05;2.95;;;;;;;13.30;100.00;100921.66;6097231;28;20064;-65
2023/08/05 02:15:10;;;;;;;7.27;3.37;;;;;;;13.13;100.00;100950.03;6097312;28;20033;-66
2023/08/05 02:18:05;;;;;;;8.00;2.50;;;;;;;13.15;100.00;100949.91;6097328;28;20025;-65
2023/08/05 02:21:01;;;;;;;5.83;2.87;;;;;;;12.86;100.00;100943.97;6097670;28;20755;-66
2023/08/05 02:23:56;;;;;;;10.03;2.40;;;;;;;12.69;100.00;100936.88;6096734;28;20100;-65
2023/08/05 02:26:51;;;;;;;7.32;2.72;;;;;;;12.46;100.00;100942.66;6094077;28;20037;-65
2023/08/05 02:29:47;;;;;;;5.90;2.30;;;;;;;12.40;100.00;100929.97;6096431;28;20397;-65
2023/08/05 02:32:42;;;;;;;6.67;2.90;;;;;;;12.64;100.00;100939.97;6097279;28;20460;-65
2023/08/05 02:35:38;;;;;;;8.80;2.80;;;;;;;12.81;100.00;100933.81;6096928;28;20033;-65
2023/08/05 02:38:33;;;;;;;5.07;2.80;;;;;;;12.96;100.00;100940.22;6097340;28;20036;-65
2023/08/05 02:41:28;;;;;;;7.57;2.90;;;;;;;13.02;100.00;100930.78;6103301;28;20067;-65
2023/08/05 02:44:23;;;;;;;8.33;2.60;;;;;;;13.04;100.00;100937.63;6096468;28;20349;-65
2023/08/05 02:47:19;;;;;;;8.93;2.90;;;;;;;12.67;100.00;100934.34;6097033;28;20276;-65
2023/08/05 02:50:14;;;;;;;5.68;3.08;;;;;;;12.62;100.00;100935.81;6097346;28;20484;-65
2023/08/05 02:53:09;;;;;;;6.40;2.40;;;;;;;12.33;100.00;100909.47;6100578;28;20033;-65
2023/08/05 02:56:05;;;;;;;5.43;2.93;;;;;;;12.39;100.00;100914.19;6095538;28;20024;-65
2023/08/05 02:59:00;;;;;;;6.17;2.93;;;;;;;12.24;100.00;100913.03;6097113;28;20036;-65
2023/08/05 03:01:55;;;;;;;5.17;2.83;;;;;;;12.31;100.00;100927.41;6097126;28;20276;-65
2023/08/05 03:04:51;;;;;;;4.20;2.43;;;;;;;12.06;100.00;100920.16;6097561;28;20037;-65
2023/08/05 03:07:46;;;;;;;6.18;3.15;;;;;;;11.97;100.00;100921.06;6101156;28;20353;-65
2023/08/05 03:10:42;;;;;;;6.53;2.90;;;;;;;11.79;100.00;100919.22;6102079;28;20036;-65
2023/08/05 03:13:37;;;;;;;5.78;2.85;;;;;;;11.84;100.00;100943.53;6100610;28;20021;-65
2023/08/05 03:16:32;;;;;;;6.70;2.67;;;;;;;11.87;100.00;100937.06;6102602;28;20037;-65
2023/08/05 03:19:28;;;;;;;4.80;2.10;;;;;;;11.94;100.00;100925.69;6104332;28;20028;-65
2023/08/05 03:22:23;;;;;;;5.75;2.53;;;;;;;12.06;100.00;100933.44;6106227;28;20104;-65
2023/08/05 03:25:22;;;;;;;8.15;2.92;;;;;;;12.04;100.00;100920.28;6100006;28;20028;-65
2023/08/05 03:28:17;;;;;;;7.90;3.50;;;;;;;12.04;100.00;100930.13;6110340;28;20448;-65
2023/08/05 03:31:13;;;;;;;6.80;3.20;;;;;;;11.91;100.00;100928.63;6100692;28;20037;-65
2023/08/05 03:34:08;;;;;;;6.23;3.33;;;;;;;11.95;100.00;100931.84;6100136;28;20028;-65
2023/08/05 03:37:04;;;;;;;6.63;2.83;;;;;;;11.96;100.00;100945.97;6100596;28;20056;-65
2023/08/05 03:39:59;;;;;;;6.43;3.22;;;;;;;12.15;100.00;100927.25;6103299;28;20025;-65
2023/08/05 03:42:54;;;;;;;7.77;3.03;;;;;;;12.40;100.00;100948.59;6100109;28;20047;-65
2023/08/05 03:45:51;;;;;;;8.27;3.60;;;;;;;12.53;100.00;100943.72;6104462;28;20384;-65
2023/08/05 03:48:48;;;;;;;8.68;3.40;;;;;;;12.35;100.00;100896.84;6102017;28;20365;-65
2023/08/05 03:51:43;;;;;;;6.93;3.35;;;;;;;12.60;100.00;100941.28;6100234;28;20017;-65
2023/08/05 03:54:39;;;;;;;6.90;3.57;;;;;;;12.51;100.00;100929.75;6103402;28;20091;-65
2023/08/05 03:57:34;;;;;;;9.33;4.33;;;;;;;12.57;100.00;100925.63;6100048;28;20516;-65
2023/08/05 04:00:29;;;;;;;6.80;3.63;;;;;;;12.69;100.00;100935.03;6100125;28;20074;-65
2023/08/05 04:03:25;;;;;;;8.33;4.60;;;;;;;12.66;100.00;100924.72;6099662;28;20436;-65
2023/08/05 04:06:20;;;;;;;15.00;5.10;;;;;;;12.65;100.00;100928.34;6099808;28;20290;-65
2023/08/05 04:09:18;;;;;;;11.95;4.40;;;;;;;12.70;100.00;100931.38;6098675;28;20071;-65
2023/08/05 04:12:14;;;;;;;14.32;5.15;;;;;;;12.85;100.00;100921.88;6100045;28;20349;-65
2023/08/05 04:15:13;;;;;;;10.93;4.80;;;;;;;12.92;100.00;100924.72;6099033;28;20414;-65
2023/08/05 04:18:08;;;;;;;12.95;5.65;;;;;;;13.13;100.00;100917.25;6096358;28;20033;-65
2023/08/05 04:21:04;;;;;;;8.80;4.47;;;;;;;13.09;100.00;100924.72;6097499;28;20032;-65
2023/08/05 04:24:01;;;;;;;11.07;5.30;;;;;;;13.11;100.00;100933.38;6110801;28;20261;-65
2023/08/05 04:26:56;;;;;;;13.60;5.43;;;;;;;13.13;100.00;100946.53;6099636;28;20491;-65
2023/08/05 04:29:52;;;;;;;9.38;4.75;;;;;;;13.11;100.00;100921.91;6099998;28;20116;-65
2023/08/05 04:32:47;;;;;;;11.00;4.97;;;;;;;13.19;100.00;100923.75;6099499;28;20464;-65
2023/08/05 04:35:49;;;;;;;12.57;4.97;;;;;;;13.24;100.00;100916.13;6094562;28;20033;-65
2023/08/05 04:38:44;;;;;;;9.70;4.75;;;;;;;13.34;100.00;100922.19;6099495;28;20472;-65
2023/08/05 04:41:40;;;;;;;12.10;4.93;;;;;;;13.32;100.00;100909.03;6099366;28;20035;-65
2023/08/05 04:44:37;;;;;;;8.80;4.60;;;;;;;13.33;100.00;100916.03;6098059;28;20025;-65
2023/08/05 04:47:33;;;;;;;10.25;4.65;;;;;;;13.46;100.00;100910.25;6098738;28;20041;-65
2023/08/05 04:50:28;;;;;;;9.53;4.80;;;;;;;13.71;100.00;100925.34;6098936;28;20033;-65
2023/08/05 04:53:23;;;;;;;9.90;4.33;;;;;;;13.74;100.00;100914.38;6099004;28;20028;-66
2023/08/05 04:56:25;;;;;;;12.15;4.50;;;;;;;13.85;100.00;100927.41;6099008;28;20399;-65
2023/08/05 04:59:20;;;;;;;9.60;4.43;;;;;;;13.79;100.00;100927.22;6101375;28;20021;-65
2023/08/05 05:02:16;;;;;;;9.00;4.73;;;;;;;14.04;100.00;100912.97;6098772;28;20056;-65
2023/08/05 05:05:11;;;;;;;10.90;5.47;;;;;;;13.84;100.00;100925.72;6100345;28;20031;-65
2023/08/05 05:08:06;;;;;;;10.85;5.18;;;;;;;13.77;100.00;100930.06;6089635;28;20024;-65
2023/08/05 05:11:02;;;;;;;10.53;5.13;;;;;;;13.80;100.00;100923.56;6100365;28;20484;-65
2023/08/05 05:13:57;;;;;;;12.05;6.03;;;;;;;13.86;100.00;100929.06;6097619;28;20255;-65
2023/08/05 05:16:52;;;;;;;10.75;4.95;;;;;;;13.90;100.00;100914.44;6098204;28;20025;-65
2023/08/05 05:19:48;;;;;;;13.20;4.90;;;;;;;13.95;100.00;100906.78;6099268;28;20423;-65
2023/08/05 05:22:43;;;;;;;11.30;5.15;;;;;;;13.89;100.00;100918.06;6105618;28;20071;-64
2023/08/05 05:25:39;;;;;;;11.43;6.33;;;;;;;13.95;100.00;100919.25;6102084;28;20431;-64
2023/08/05 05:28:34;;;;;;;12.27;4.97;;;;;;;14.19;100.00;100937.97;6104360;28;20279;-65
2023/08/05 05:31:29;;;;;;;10.40;5.00;;;;;;;14.26;100.00;100939.84;6098331;28;20376;-65
2023/08/05 05:34:25;;;;;;;10.87;5.13;;;;;;;14.39;100.00;100950.06;6099116;28;20267;-65
2023/08/05 05:37:20;;;;;;;10.63;3.90;;;;;;;14.40;100.00;100965.09;6105196;28;20286;-65
2023/08/05 05:40:15;;;;;;;10.63;4.83;;;;;;;14.27;100.00;100951.34;6098354;28;20036;-65
2023/08/05 05:43:11;;;;;;;10.63;4.37;;;;;;;14.49;100.00;100957.91;6098536;28;20103;-65
2023/08/05 05:46:06;;;;;;;9.17;4.07;;;;;;;14.57;100.00;100982.78;6100657;28;20031;-65
2023/08/05 05:49:03;;;;;;;11.50;4.90;;;;;;;14.61;100.00;100989.47;6098158;28;20307;-65
2023/08/05 05:51:58;;;;;;;13.18;4.85;;;;;;;14.53;100.00;100991.28;6104441;28;20046;-65
2023/08/05 05:54:54;;;;;;;10.70;4.83;;;;;;;14.65;100.00;100976.59;6101388;28;20040;-65
2023/08/05 05:57:50;;;;;;;12.02;4.60;;;;;;;14.65;100.00;100979.28;6110976;28;20272;-65
2023/08/05 06:00:45;;;;;;;9.80;4.97;;;;;;;14.61;100.00;100978.78;6097913;28;20075;-65
2023/08/05 06:03:42;;;;;;;11.07;4.77;;;;;;;14.61;100.00;100967.28;6100334;28;20119;-64
2023/08/05 06:06:37;;;;;;;11.88;5.55;;;;;;;14.63;100.00;100973.28;6096567;28;20310;-65
2023/08/05 06:09:32;;;;;;;10.07;5.07;;;;;;;14.71;100.00;100958.09;6097393;28;20476;-64
2023/08/05 06:12:32;;;;;;;10.70;5.00;;;;;;;14.76;100.00;100944.25;6099126;28;20036;-65
2023/08/05 06:15:28;;;;;;;8.55;4.18;;;;;;;14.99;100.00;100966.59;6097967;28;20376;-65
2023/08/05 06:18:23;;;;;;;8.80;4.00;;;;;;;15.34;100.00;100963.53;6097064;28;20041;-65
2023/08/05 06:21:19;;;;;;;10.33;4.47;;;;;;;15.19;100.00;100946.53;6101771;28;20067;-65
2023/08/05 06:24:14;;;;;;;8.70;3.63;;;;;;;15.39;100.00;100969.22;6096741;28;20029;-65
2023/08/05 06:27:09;;;;;;;9.13;3.92;;;;;;;15.74;100.00;100957.25;6097490;28;20053;-65
2023/08/05 06:30:05;;;;;;;8.13;3.92;;;;;;;16.01;100.00;100975.53;6103651;28;20150;-65
2023/08/05 06:33:01;;;;;;;10.85;4.50;;;;;;;16.04;100.00;100969.81;6097488;28;20240;-65
2023/08/05 06:35:56;;;;;;;10.88;3.88;;;;;;;15.98;100.00;100970.53;6104337;28;20032;-65
2023/08/05 06:38:51;;;;;;;8.30;3.77;;;;;;;15.96;100.00;100950.31;6096249;28;20044;-65
2023/08/05 06:41:47;;;;;;;7.23;3.63;;;;;;;16.39;100.00;100954.22;6102674;28;20067;-65
2023/08/05 06:44:43;;;;;;;9.17;3.67;;;;;;;16.61;100.00;100961.47;6102467;28;20029;-65
2023/08/05 06:47:39;;;;;;;6.68;3.60;;;;;;;16.90;100.00;100942.84;6105953;28;20671;-65
2023/08/05 06:50:34;;;;;;;6.83;3.17;;;;;;;17.03;100.00;100945.72;6106914;28;20472;-65
2023/08/05 06:53:29;;;;;;;8.52;3.50;;;;;;;17.13;100.00;100950.78;6105959;28;20035;-65
2023/08/05 06:56:25;;;;;;;8.53;3.53;;;;;;;17.23;100.00;100929.91;6101938;28;20468;-65
2023/08/05 06:59:20;;;;;;;6.13;3.10;;;;;;;16.93;100.00;100909.47;6103415;28;20039;-65
2023/08/05 07:02:15;;;;;;;10.45;3.30;;;;;;;17.90;99.28;100927.16;6112075;28;20115;-65
2023/08/05 07:05:11;;;;;;;7.40;3.10;;;;;;;18.13;91.92;100899.13;6103342;28;20037;-64
2023/08/05 07:08:06;;;;;;;7.35;2.53;;;;;;;17.90;90.18;100911.03;6095236;28;20299;-65
2023/08/05 07:11:02;;;;;;;5.87;2.60;;;;;;;17.69;92.68;100898.44;6097510;28;20032;-65
2023/08/05 07:13:57;;;;;;;6.22;2.50;;;;;;;17.70;90.06;100898.22;6096307;28;20029;-65
2023/08/05 07:16:53;;;;;;;10.07;2.40;;;;;;;18.12;87.30;100891.28;6095139;28;20483;-65
2023/08/05 07:19:48;;;;;;;4.07;2.53;;;;;;;17.82;86.59;100888.69;6097472;28;20053;-65
2023/08/05 07:22:43;;;;;;;6.63;2.53;;;;;;;18.08;81.70;100889.97;6096659;28;20048;-64
2023/08/05 07:25:39;;;;;;;8.20;2.43;;;;;;;19.24;80.96;100893.06;6098129;28;20291;-65
2023/08/05 07:28:34;;;;;;;5.87;2.17;;;;;;;19.27;76.88;100890.00;6099228;28;20032;-65
2023/08/05 07:31:29;;;;;;;8.10;2.57;;;;;;;20.09;74.56;100894.28;6098191;28;20383;-65
2023/08/05 07:34:30;;;;;;;5.67;1.70;;;;;;;19.89;68.83;100897.97;6097330;28;20025;-65
2023/08/05 07:37:26;;;;;;;7.13;2.17;;;;;;;19.89;65.24;100888.03;6095439;28;20041;-65
2023/08/05 07:40:22;;;;;;;4.50;1.58;;;;;;;19.41;66.66;100895.25;6101300;28;20025;-65
2023/08/05 07:43:21;;;;;;;4.55;1.50;;;;;;;19.70;66.25;100902.25;6096119;28;20082;-65
2023/08/05 07:46:19;;;;;;;6.07;2.00;;;;;;;19.78;67.47;100894.00;6099995;28;20037;-65
2023/08/05 07:49:14;;;;;;;4.60;1.70;;;;;;;19.87;66.96;100903.53;6107121;28;20108;-65
2023/08/05 07:52:09;;;;;;;4.83;1.50;;;;;;;19.43;64.14;100900.47;6099826;28;20033;-65
2023/08/05 07:55:05;;;;;;;2.53;1.30;;;;;;;19.38;63.80;100886.75;6099185;28;20017;-65
2023/08/05 07:58:01;;;;;;;2.75;1.60;;;;;;;19.10;67.64;100894.00;6100014;28;20032;-65
2023/08/05 08:00:56;;;;;;;7.65;2.10;;;;;;;20.13;63.22;100895.56;6100167;28;20029;-65
2023/08/05 08:03:56;;;;;;;6.15;1.90;;;;;;;19.46;66.62;100878.50;6096249;28;20060;-65
2023/08/05 08:06:52;;;;;;;4.78;2.00;;;;;;;20.24;66.67;100874.44;6104068;28;20135;-65
2023/08/05 08:09:47;;;;;;;6.07;1.85;;;;;;;20.45;63.25;100887.75;6099969;28;20043;-65
2023/08/05 08:12:43;;;;;;;6.13;1.50;;;;;;;20.30;63.90;100879.03;6101607;28;20032;-65
2023/08/05 08:15:38;;;;;;;5.15;1.70;;;;;;;19.57;62.63;100883.31;6107757;28;20372;-65
2023/08/05 08:18:34;;;;;;;7.53;1.90;;;;;;;19.56;65.28;100892.44;6099716;28;20037;-65
2023/08/05 08:21:29;;;;;;;4.70;1.50;;;;;;;19.63;62.92;100862.84;6110737;28;20511;-65
2023/08/05 08:24:24;;;;;;;3.73;1.60;;;;;;;19.82;62.82;100852.16;6101772;28;20291;-65
2023/08/05 08:27:20;;;;;;;4.83;1.50;;;;;;;19.71;62.58;100871.59;6099569;28;20029;-65
2023/08/05 08:30:15;;;;;;;5.93;1.52;;;;;;;20.09;61.57;100856.59;6099857;28;20025;-65
2023/08/05 08:33:11;;;;;;;5.93;1.53;;;;;;;20.36;60.85;100856.63;6099664;28;20040;-65
2023/08/05 08:36:06;;;;;;;5.03;1.30;;;;;;;20.74;61.03;100850.44;6099166;28;20275;-65
2023/08/05 08:39:02;;;;;;;5.47;1.60;;;;;;;20.40;61.15;100847.97;6111588;28;20118;-65
2023/08/05 08:41:58;;;;;;;5.97;1.85;;;;;;;20.13;62.03;100841.69;6099121;28;20150;-65
2023/08/05 08:44:53;;;;;;;7.28;1.58;;;;;;;19.90;61.67;100817.00;6100266;28;20086;-65
2023/08/05 08:47:49;;;;;;;6.28;1.50;;;;;;;20.26;59.89;100810.44;6117765;28;20396;-65
2023/08/05 08:50:46;;;;;;;5.00;1.40;;;;;;;20.95;58.81;100819.72;6100636;28;20033;-65
2023/08/05 08:53:43;;;;;;;3.90;1.73;;;;;;;21.46;58.62;100797.38;6098607;28;20396;-65
2023/08/05 08:56:38;;;;;;;6.38;1.60;;;;;;;20.91;57.45;100805.00;6100821;28;20033;-65
2023/08/05 08:59:34;;;;;;;3.57;1.47;;;;;;;20.52;60.17;100805.88;6104727;28;20021;-65
2023/08/05 09:02:29;;;;;;;5.00;1.60;;;;;;;20.37;58.55;100802.56;6104536;28;20028;-65
2023/08/05 09:05:25;;;;;;;4.63;1.83;;;;;;;20.81;58.09;100810.00;6104246;28;20444;-65
2023/08/05 09:08:20;;;;;;;5.93;1.80;;;;;;;20.84;58.96;100795.25;6110009;28;20039;-65
2023/08/05 09:11:16;;;;;;;5.87;1.40;;;;;;;21.11;56.29;100797.72;6101261;28;20033;-65
2023/08/05 09:14:14;;;;;;;4.80;1.95;;;;;;;20.86;58.26;100785.09;6104369;28;20316;-65
2023/08/05 09:17:12;;;;;;;5.53;1.83;;;;;;;21.14;56.91;100793.75;6098465;28;20094;-65
2023/08/05 09:20:16;;;;;;;5.03;1.50;;;;;;;21.38;55.23;100808.41;6109223;28;20032;-65
2023/08/05 09:23:12;;;;;;;6.05;2.00;;;;;;;22.27;52.76;100795.63;6102763;28;20044;-66
2023/08/05 09:26:07;;;;;;;4.60;1.67;;;;;;;22.37;54.37;100785.13;6098752;28;20418;-65
2023/08/05 09:29:03;;;;;;;9.63;1.83;;;;;;;22.74;51.65;100802.31;6093684;28;20275;-65
2023/08/05 09:32:03;;;;;;;4.68;2.00;;;;;;;22.54;51.13;100797.06;6098071;28;20033;-66
2023/08/05 09:34:59;;;;;;;4.93;1.55;;;;;;;22.82;51.32;100813.66;6094301;28;21289;-66
2023/08/05 09:37:54;;;;;;;3.53;1.80;;;;;;;23.19;50.25;100802.84;6101918;28;20107;-65
2023/08/05 09:40:52;;;;;;;2.08;1.15;;;;;;;23.01;51.11;100782.03;6096815;28;20106;-66
2023/08/05 09:43:49;;;;;;;5.55;1.27;;;;;;;22.16;53.87;100772.03;6101916;28;20461;-66
2023/08/05 09:46:45;;;;;;;4.30;1.40;;;;;;;22.41;53.46;100760.16;6096440;28;20056;-66
2023/08/05 09:49:42;;;;;;;2.83;1.17;;;;;;;22.27;52.46;100772.13;6098131;28;20032;-66
2023/08/05 09:52:39;;;;;;;4.03;1.33;;;;;;;22.14;52.36;100764.16;6107249;28;20028;-66
2023/08/05 09:55:38;;;;;;;2.88;1.35;;;;;;;21.82;52.31;100765.19;6094521;28;20108;-66
2023/08/05 09:58:37;;;;;;;4.47;1.45;;;;;;;21.78;55.53;100767.50;6102517;28;20031;-66
2023/08/05 10:01:33;;;;;;;5.35;1.48;;;;;;;22.39;53.43;100750.63;6096458;28;20049;-65
2023/08/05 10:04:29;;;;;;;4.22;1.52;;;;;;;22.28;51.80;100754.06;6082273;28;20025;-66
2023/08/05 10:07:25;;;;;;;4.03;1.67;;;;;;;22.12;53.89;100768.94;6083324;28;20488;-66
2023/08/05 10:10:21;;;;;;;3.92;1.77;;;;;;;21.88;53.92;100754.34;6092166;28;20040;-66
2023/08/05 10:13:18;;;;;;;5.72;2.15;;;;;;;22.01;54.68;100756.16;6089116;28;20029;-66
2023/08/05 10:16:13;;;;;;;3.40;1.75;;;;;;;21.83;53.98;100762.25;6094246;28;20044;-66
2023/08/05 10:19:09;;;;;;;4.03;1.70;;;;;;;21.65;54.27;100764.88;6092521;28;20037;-66
2023/08/05 10:22:12;;;;;;;3.30;1.83;;;;;;;22.17;53.83;100752.06;6099330;28;20043;-66
2023/08/05 10:25:07;;;;;;;3.40;1.63;;;;;;;22.42;53.17;100755.59;6094296;28;20279;-65
2023/08/05 10:28:03;;;;;;;3.67;1.85;;;;;;;22.34;52.27;100737.75;6097211;28;20041;-66
2023/08/05 10:31:03;;;;;;;4.40;1.85;;;;;;;22.30;52.28;100744.69;6102947;28;20091;-66
2023/08/05 10:34:11;;;;;;;5.68;1.85;;;;;;;22.04;51.69;100735.97;6101906;28;20447;-66
2023/08/05 10:37:07;;;;;;;4.88;2.10;;;;;;;22.32;52.58;100739.88;6100524;28;20381;-66
2023/08/05 10:40:04;;;;;;;3.17;1.73;;;;;;;22.02;53.11;100730.78;6091735;28;20051;-65
2023/08/05 10:42:59;;;;;;;4.57;1.67;;;;;;;22.92;52.81;100734.69;6102257;28;20028;-66
2023/08/05 10:45:54;;;;;;;4.93;2.20;;;;;;;22.83;51.86;100739.56;6112699;28;20568;-66
2023/08/05 10:48:50;;;;;;;4.60;1.97;;;;;;;23.24;50.55;100724.53;6085826;28;20300;-66
2023/08/05 10:51:45;;;;;;;6.28;2.50;;;;;;;22.15;50.61;100716.34;6092356;28;20495;-66
2023/08/05 10:54:41;;;;;;;5.55;2.00;;;;;;;22.05;51.81;100722.22;6093696;28;20032;-66
2023/08/05 10:57:39;;;;;;;5.13;2.30;;;;;;;22.32;50.85;100722.81;6095648;28;20040;-65
2023/08/05 11:00:38;;;;;;;4.13;2.00;;;;;;;22.30;50.71;100725.75;6093341;28;20482;-66
2023/08/05 11:03:56;;;;;;;5.72;2.28;;;;;;;22.93;50.33;100703.91;6096191;28;20034;-66
2023/08/05 11:06:51;;;;;;;4.35;2.30;;;;;;;22.88;49.96;100692.94;6093196;28;20033;-66
2023/08/05 11:09:48;;;;;;;6.68;2.30;;;;;;;22.80;51.01;100695.94;6100799;28;20483;-66
2023/08/05 11:12:43;;;;;;;6.20;2.03;;;;;;;21.98;52.75;100699.88;6091186;28;20052;-65
2023/08/05 11:15:41;;;;;;;5.43;2.70;;;;;;;21.43;54.22;100700.63;6093948;28;20411;-66
2023/08/05 11:18:37;;;;;;;4.40;2.00;;;;;;;21.52;54.90;100696.66;6103630;28;20124;-65
2023/08/05 11:21:33;;;;;;;6.82;2.70;;;;;;;21.89;53.47;100676.88;6097293;28;20032;-66
2023/08/05 11:24:28;;;;;;;5.57;2.40;;;;;;;21.74;53.48;100690.66;6095518;28;20033;-66
2023/08/05 11:27:33;;;;;;;6.90;2.40;;;;;;;21.49;52.97;100656.59;6098327;28;20037;-65
2023/08/05 11:30:28;;;;;;;4.50;2.20;;;;;;;21.75;54.04;100675.28;6092436;28;20583;-66
2023/08/05 11:33:24;;;;;;;4.43;2.20;;;;;;;22.35;53.19;100669.16;6104405;28;20037;-66
2023/08/05 11:36:26;;;;;;;7.37;2.47;;;;;;;21.49;53.36;100678.19;6099150;28;20024;-64
2023/08/05 11:39:23;;;;;;;4.28;2.60;;;;;;;22.07;53.39;100659.91;6090715;28;20600;-65
2023/08/05 11:42:18;;;;;;;5.55;2.20;;;;;;;21.77;53.39;100646.19;6110682;28;20154;-65
2023/08/05 11:45:14;;;;;;;6.60;2.30;;;;;;;21.77;53.49;100654.28;6091649;28;20374;-65
2023/08/05 11:48:20;;;;;;;5.55;2.20;;;;;;;21.89;52.72;100656.09;6081014;28;20019;-65
2023/08/05 11:51:15;;;;;;;4.13;2.05;;;;;;;21.60;54.66;100647.81;6106266;28;20044;-66
2023/08/05 11:54:10;;;;;;;3.30;1.83;;;;;;;22.61;51.21;100654.53;6104533;28;20238;-66
2023/08/05 11:57:18;;;;;;;3.40;1.80;;;;;;;22.92;50.29;100650.84;6100521;28;20307;-65
2023/08/05 12:00:14;;;;;;;5.40;1.83;;;;;;;22.52;51.83;100632.38;6100036;28;20272;-66
2023/08/05 12:03:09;;;;;;;5.80;2.10;;;;;;;22.94;50.79;100635.19;6099884;28;20043;-66
2023/08/05 12:06:05;;;;;;;4.87;2.13;;;;;;;22.82;51.85;100627.06;6100501;28;20287;-66
2023/08/05 12:09:01;;;;;;;4.32;2.08;;;;;;;22.57;51.55;100629.00;6100065;28;20751;-66
2023/08/05 12:11:56;;;;;;;4.50;1.73;;;;;;;23.07;50.43;100629.63;6099409;28;20063;-66
2023/08/05 12:15:07;;;;;;;4.78;2.50;;;;;;;23.00;50.49;100602.66;6099061;28;20029;-66
2023/08/05 12:18:04;;;;;;;4.38;1.95;;;;;;;23.06;50.26;100595.50;6099362;28;20078;-65
2023/08/05 12:21:01;;;;;;;6.07;2.22;;;;;;;23.01;50.51;100603.50;6100951;28;20025;-66
2023/08/05 12:23:57;;;;;;;4.05;2.33;;;;;;;22.73;52.20;100603.25;6100190;28;20098;-66
2023/08/05 12:26:52;;;;;;;4.93;2.37;;;;;;;22.44;53.31;100588.63;6099848;28;20119;-66
2023/08/05 12:29:47;;;;;;;5.07;2.47;;;;;;;22.69;52.93;100600.19;6101243;28;20279;-66
2023/08/05 12:32:43;;;;;;;6.73;2.50;;;;;;;22.63;53.42;100597.53;6099178;28;20483;-66
2023/08/05 12:35:38;;;;;;;5.23;2.20;;;;;;;22.39;53.47;100588.47;6108690;28;20068;-66
2023/08/05 12:38:33;;;;;;;3.80;2.30;;;;;;;22.65;53.50;100587.34;6102422;28;20324;-66
2023/08/05 12:41:29;;;;;;;7.20;2.33;;;;;;;23.61;51.25;100588.00;6100640;28;20372;-66
2023/08/05 12:44:24;;;;;;;5.80;2.37;;;;;;;23.94;49.95;100571.19;6118682;28;20021;-66
2023/08/05 12:47:20;;;;;;;5.57;2.20;;;;;;;23.62;50.25;100568.81;6110329;28;20029;-66
2023/08/05 12:50:15;;;;;;;4.22;2.22;;;;;;;23.19;51.00;100562.00;6090923;28;20143;-66
2023/08/05 12:53:10;;;;;;;4.77;2.10;;;;;;;23.00;51.58;100580.19;6084218;28;20475;-66
2023/08/05 12:56:06;;;;;;;6.20;2.40;;;;;;;22.85;50.89;100582.50;6098549;28;20738;-66
2023/08/05 12:59:01;;;;;;;6.17;2.40;;;;;;;22.61;50.74;100569.91;6098982;28;20036;-66
2023/08/05 13:01:56;;;;;;;7.30;1.97;;;;;;;22.62;51.13;100571.53;6099555;28;20033;-66
2023/08/05 13:04:52;;;;;;;5.07;2.42;;;;;;;23.32;49.72;100545.59;6098210;28;20483;-66
2023/08/05 13:07:47;;;;;;;7.07;2.27;;;;;;;23.82;48.67;100546.78;6090870;28;20376;-66
2023/08/05 13:10:44;;;;;;;4.10;2.13;;;;;;;23.86;48.16;100552.56;6098685;28;20041;-66
2023/08/05 13:13:39;;;;;;;5.15;2.13;;;;;;;24.03;50.66;100551.59;6098031;28;20043;-66
2023/08/05 13:16:35;;;;;;;5.07;2.40;;;;;;;23.93;48.67;100534.28;6101286;28;20033;-66
2023/08/05 13:19:30;;;;;;;5.73;2.57;;;;;;;24.23;47.90;100532.28;6098606;28;20036;-66
2023/08/05 13:22:25;;;;;;;5.23;2.53;;;;;;;23.34;48.89;100533.47;6098235;28;20036;-66
2023/08/05 13:25:21;;;;;;;6.37;2.40;;;;;;;23.79;48.81;100535.59;6097275;28;20290;-66
2023/08/05 13:28:17;;;;;;;4.68;2.30;;;;;;;23.84;48.66;100508.63;6098544;28;20131;-66
2023/08/05 13:31:13;;;;;;;6.97;2.40;;;;;;;23.77;48.85;100522.31;6107471;28;20086;-66